Time;durP1;ratioP1;P1;durP2;ratioP2;P2;SDS_P1;SDS_P2;PMS_P1;PMS_P2;Temp;Humidity;BMP_temperature;BMP_pressure;BME280_temperature;BME280_humidity;BME280_pressure;Samples;Min_cycle;Max_cycle;Signal;HPM_P1;HPM_P2
2023/02/20 00:02:17;;;;;;;1.30;1.00;;;;;;;;;;5052795;28;20497;-67
2023/02/20 00:04:44;;;;;;;4.73;2.07;;;;;;;;;;5052104;28;20446;-66
2023/02/20 00:07:11;;;;;;;1.80;1.43;;;;;;;;;;5052640;28;20493;-67
2023/02/20 00:09:38;;;;;;;1.80;1.20;;;;;;;;;;5053091;28;20498;-67
2023/02/20 00:12:06;;;;;;;1.70;1.33;;;;;;;;;;5052754;28;20943;-67
2023/02/20 00:14:34;;;;;;;2.87;1.33;;;;;;;;;;5052966;28;20442;-67
2023/02/20 00:17:01;;;;;;;2.00;1.20;;;;;;;;;;5052471;28;20450;-66
2023/02/20 00:19:29;;;;;;;2.90;1.47;;;;;;;;;;5052453;28;20451;-67
2023/02/20 00:21:56;;;;;;;4.53;2.37;;;;;;;;;;5052026;28;20442;-67
2023/02/20 00:24:23;;;;;;;4.30;2.03;;;;;;;;;;5052649;28;20438;-67
2023/02/20 00:26:51;;;;;;;2.40;1.03;;;;;;;;;;5052408;28;20469;-68
2023/02/20 00:29:19;;;;;;;1.43;1.23;;;;;;;;;;5052606;28;20489;-67
2023/02/20 00:31:51;;;;;;;4.67;1.43;;;;;;;;;;5051923;28;20447;-67
2023/02/20 00:34:18;;;;;;;3.40;1.57;;;;;;;;;;5052715;28;20439;-67
2023/02/20 00:36:46;;;;;;;2.13;1.57;;;;;;;;;;5051955;28;20454;-67
2023/02/20 00:39:14;;;;;;;4.10;1.53;;;;;;;;;;5052061;28;20930;-67
2023/02/20 00:41:41;;;;;;;2.47;1.30;;;;;;;;;;5052069;28;20463;-67
2023/02/20 00:44:08;;;;;;;2.37;1.97;;;;;;;;;;5052617;28;20677;-67
2023/02/20 00:46:36;;;;;;;3.10;1.53;;;;;;;;;;5052300;28;20814;-67
2023/02/20 00:49:03;;;;;;;4.20;2.83;;;;;;;;;;5051871;28;20482;-67
2023/02/20 00:51:32;;;;;;;4.07;1.50;;;;;;;;;;5051799;28;20449;-67
2023/02/20 00:54:00;;;;;;;5.23;1.57;;;;;;;;;;5051681;28;20462;-67
2023/02/20 00:56:27;;;;;;;4.83;1.70;;;;;;;;;;5051872;28;20462;-67
2023/02/20 00:58:54;;;;;;;1.50;1.20;;;;;;;;;;5051635;28;20458;-67
2023/02/20 01:01:22;;;;;;;3.33;1.53;;;;;;;;;;5051289;28;20514;-67
2023/02/20 01:03:49;;;;;;;2.50;1.50;;;;;;;;;;5051571;28;20454;-67
2023/02/20 01:06:16;;;;;;;5.53;2.97;;;;;;;;;;5051388;28;20450;-67
2023/02/20 01:08:43;;;;;;;3.07;1.60;;;;;;;;;;5050477;28;20608;-67
2023/02/20 01:11:11;;;;;;;2.20;1.57;;;;;;;;;;5051175;28;20482;-67
2023/02/20 01:13:39;;;;;;;2.70;1.47;;;;;;;;;;5052020;28;20458;-67
2023/02/20 01:16:06;;;;;;;3.63;1.50;;;;;;;;;;5051144;28;20465;-67
2023/02/20 01:18:33;;;;;;;2.50;1.20;;;;;;;;;;5051463;28;20455;-67
2023/02/20 01:21:00;;;;;;;6.47;1.90;;;;;;;;;;5050702;28;20446;-67
2023/02/20 01:23:27;;;;;;;1.93;1.50;;;;;;;;;;5051453;28;20445;-68
2023/02/20 01:25:54;;;;;;;3.97;1.83;;;;;;;;;;5056661;28;20446;-67
2023/02/20 01:28:23;;;;;;;2.37;1.60;;;;;;;;;;5051561;28;20837;-68
2023/02/20 01:30:50;;;;;;;3.30;2.03;;;;;;;;;;5050908;28;20454;-66
2023/02/20 01:33:17;;;;;;;3.03;1.77;;;;;;;;;;5051233;28;20848;-67
2023/02/20 01:35:44;;;;;;;5.30;1.50;;;;;;;;;;5050769;28;20447;-67
2023/02/20 01:38:11;;;;;;;4.67;1.63;;;;;;;;;;5051087;28;20465;-67
2023/02/20 01:40:38;;;;;;;2.17;1.60;;;;;;;;;;5051376;28;20450;-67
2023/02/20 01:43:05;;;;;;;3.10;1.60;;;;;;;;;;5050204;28;20457;-67
2023/02/20 01:45:35;;;;;;;2.00;1.50;;;;;;;;;;5050784;28;20454;-66
2023/02/20 01:48:02;;;;;;;2.00;1.13;;;;;;;;;;5042576;28;20966;-67
2023/02/20 01:50:32;;;;;;;2.50;1.73;;;;;;;;;;5050508;28;20449;-67
2023/02/20 01:53:00;;;;;;;3.47;1.87;;;;;;;;;;5049372;28;20461;-66
2023/02/20 01:55:29;;;;;;;2.37;1.90;;;;;;;;;;5050450;28;20443;-67
2023/02/20 01:58:00;;;;;;;1.47;1.10;;;;;;;;;;5050029;28;20447;-67
2023/02/20 02:00:27;;;;;;;6.27;1.90;;;;;;;;;;5050745;28;20805;-67
2023/02/20 02:02:57;;;;;;;4.77;1.70;;;;;;;;;;5049595;28;20497;-66
2023/02/20 02:05:25;;;;;;;2.47;1.47;;;;;;;;;;5050985;28;20781;-67
2023/02/20 02:07:52;;;;;;;2.40;1.80;;;;;;;;;;5049733;28;20454;-66
2023/02/20 02:10:24;;;;;;;4.43;1.80;;;;;;;;;;5050733;28;20494;-67
2023/02/20 02:12:53;;;;;;;8.80;1.80;;;;;;;;;;5049631;28;20521;-66
2023/02/20 02:15:21;;;;;;;2.60;1.10;;;;;;;;;;5050719;28;20450;-67
2023/02/20 02:18:15;;;;;;;2.90;1.30;;;;;;;;;;5048875;28;20477;-67
2023/02/20 02:21:00;;;;;;;4.60;1.70;;;;;;;;;;5014000;28;20853;-66
2023/02/20 02:23:45;;;;;;;2.70;1.30;;;;;;;;;;5050111;28;20446;-67
2023/02/20 02:26:22;;;;;;;3.13;1.40;;;;;;;;;;5050085;28;20465;-67
2023/02/20 02:29:13;;;;;;;1.70;1.00;;;;;;;;;;5049832;28;20466;-67
2023/02/20 02:32:04;;;;;;;2.80;1.33;;;;;;;;;;5034444;28;20481;-67
2023/02/20 02:34:49;;;;;;;1.33;1.23;;;;;;;;;;5047888;28;20457;-67
2023/02/20 02:37:20;;;;;;;4.60;1.87;;;;;;;;;;5040362;28;20511;-67
2023/02/20 02:39:50;;;;;;;2.50;1.60;;;;;;;;;;5049991;28;20454;-67
2023/02/20 02:42:21;;;;;;;3.13;1.30;;;;;;;;;;5049474;28;20450;-67
2023/02/20 02:44:53;;;;;;;1.53;1.23;;;;;;;;;;5050099;28;20442;-67
2023/02/20 02:47:23;;;;;;;3.20;1.57;;;;;;;;;;5050095;28;20450;-67
2023/02/20 02:49:52;;;;;;;1.53;1.13;;;;;;;;;;5043615;28;20482;-67
2023/02/20 02:55:02;;;;;;;1.47;1.07;;;;;;;;;;5049382;28;20446;-67
2023/02/20 02:57:29;;;;;;;1.63;1.37;;;;;;;;;;5050338;28;20469;-67
2023/02/20 03:00:01;;;;;;;2.30;1.53;;;;;;;;;;5049707;28;20458;-66
2023/02/20 03:02:30;;;;;;;1.80;1.13;;;;;;;;;;5049054;28;20439;-67
2023/02/20 03:04:58;;;;;;;8.20;1.60;;;;;;;;;;5049391;28;20434;-67
2023/02/20 03:07:27;;;;;;;1.97;1.60;;;;;;;;;;5050104;28;20457;-66
2023/02/20 03:09:56;;;;;;;3.20;1.23;;;;;;;;;;5049512;28;20585;-66
2023/02/20 03:12:25;;;;;;;2.30;1.53;;;;;;;;;;5049908;28;20450;-67
2023/02/20 03:17:43;;;;;;;3.30;1.57;;;;;;;;;;5050020;28;20438;-66
2023/02/20 03:20:12;;;;;;;1.40;1.10;;;;;;;;;;5050266;28;20810;-67
2023/02/20 03:22:43;;;;;;;2.23;1.63;;;;;;;;;;5049865;28;20442;-67
2023/02/20 03:25:12;;;;;;;4.93;1.93;;;;;;;;;;5050100;28;20461;-66
2023/02/20 03:27:42;;;;;;;2.63;0.90;;;;;;;;;;5050465;28;20446;-67
2023/02/20 03:30:13;;;;;;;1.87;1.43;;;;;;;;;;5053498;28;20588;-67
2023/02/20 03:43:46;;;;;;;4.63;1.60;;;;;;;;;;5052910;28;20422;-66
2023/02/20 03:46:14;;;;;;;1.50;1.27;;;;;;;;;;5053588;28;20450;-67
2023/02/20 03:48:43;;;;;;;2.60;1.80;;;;;;;;;;5053268;28;20442;-66
2023/02/20 03:51:13;;;;;;;4.70;1.33;;;;;;;;;;5053185;28;20446;-66
2023/02/20 03:53:43;;;;;;;2.60;1.60;;;;;;;;;;5053107;28;20450;-67
2023/02/20 03:56:11;;;;;;;3.27;1.37;;;;;;;;;;5053148;28;20939;-67
2023/02/20 03:58:40;;;;;;;1.50;1.40;;;;;;;;;;5053381;28;20443;-67
2023/02/20 04:01:09;;;;;;;3.30;2.30;;;;;;;;;;5052837;28;20819;-67
2023/02/20 04:03:39;;;;;;;2.67;1.60;;;;;;;;;;5040461;28;20787;-67
2023/02/20 04:06:08;;;;;;;4.07;1.50;;;;;;;;;;5052808;28;20447;-67
2023/02/20 04:08:37;;;;;;;4.03;1.10;;;;;;;;;;5052436;28;20482;-67
2023/02/20 04:11:07;;;;;;;3.57;1.60;;;;;;;;;;5051805;28;20450;-67
2023/02/20 04:13:34;;;;;;;2.60;1.70;;;;;;;;;;5052993;28;20446;-67
2023/02/20 04:16:02;;;;;;;2.30;1.50;;;;;;;;;;5052347;28;20465;-66
2023/02/20 04:18:30;;;;;;;1.93;1.50;;;;;;;;;;5052944;28;20473;-67
2023/02/20 04:20:58;;;;;;;2.30;1.40;;;;;;;;;;5051997;28;20747;-67
2023/02/20 04:23:27;;;;;;;1.93;1.37;;;;;;;;;;5052842;28;20822;-67
2023/02/20 04:25:56;;;;;;;3.50;1.70;;;;;;;;;;5052172;28;20446;-67
2023/02/20 04:28:25;;;;;;;3.47;2.07;;;;;;;;;;5052809;28;20455;-67
2023/02/20 04:30:52;;;;;;;4.77;1.37;;;;;;;;;;5051614;28;20600;-67
2023/02/20 04:33:20;;;;;;;3.07;1.63;;;;;;;;;;5052803;28;20446;-67
2023/02/20 04:35:47;;;;;;;1.43;1.33;;;;;;;;;;5052291;28;20798;-67
2023/02/20 04:38:14;;;;;;;4.37;1.60;;;;;;;;;;5052771;28;20820;-67
2023/02/20 04:40:41;;;;;;;4.10;2.10;;;;;;;;;;5050956;28;20462;-67
2023/02/20 04:43:08;;;;;;;3.37;1.27;;;;;;;;;;5060453;28;20443;-67
2023/02/20 04:45:38;;;;;;;1.40;0.87;;;;;;;;;;5052538;28;20765;-67
2023/02/20 04:48:05;;;;;;;3.60;1.80;;;;;;;;;;5051928;28;20533;-67
2023/02/20 04:50:33;;;;;;;6.33;2.20;;;;;;;;;;5051868;28;20482;-67
2023/02/20 04:53:00;;;;;;;2.70;1.73;;;;;;;;;;5050633;28;20473;-67
2023/02/20 04:55:27;;;;;;;2.03;1.30;;;;;;;;;;5051769;28;20813;-67
2023/02/20 04:57:56;;;;;;;4.97;1.70;;;;;;;;;;5051475;28;20447;-68
2023/02/20 05:00:24;;;;;;;1.70;1.60;;;;;;;;;;5051516;28;20970;-67
2023/02/20 05:02:53;;;;;;;1.77;1.37;;;;;;;;;;5051006;28;20450;-67
2023/02/20 05:05:21;;;;;;;5.10;1.80;;;;;;;;;;5052064;28;20450;-66
2023/02/20 05:07:48;;;;;;;1.73;1.30;;;;;;;;;;5050861;28;20454;-67
2023/02/20 05:10:16;;;;;;;3.00;1.90;;;;;;;;;;5051713;28;20494;-67
2023/02/20 05:12:43;;;;;;;3.80;1.17;;;;;;;;;;5050402;28;20958;-66
2023/02/20 05:15:10;;;;;;;4.53;2.50;;;;;;;;;;5051946;28;20808;-67
2023/02/20 05:17:37;;;;;;;1.77;1.43;;;;;;;;;;5051963;28;20454;-67
2023/02/20 05:20:06;;;;;;;2.83;1.40;;;;;;;;;;5050910;28;20454;-67
2023/02/20 05:22:33;;;;;;;1.63;1.50;;;;;;;;;;5051083;28;20450;-67
2023/02/20 05:25:00;;;;;;;2.67;1.77;;;;;;;;;;5050817;28;20454;-66
2023/02/20 05:27:28;;;;;;;3.30;2.03;;;;;;;;;;5051607;28;20446;-67
2023/02/20 05:29:55;;;;;;;3.90;1.93;;;;;;;;;;5050811;28;20498;-66
2023/02/20 05:32:23;;;;;;;2.47;2.00;;;;;;;;;;5050808;28;20446;-66
2023/02/20 05:34:50;;;;;;;2.53;1.77;;;;;;;;;;5050737;28;20451;-67
2023/02/20 05:37:19;;;;;;;3.70;2.27;;;;;;;;;;5051535;28;20477;-67
2023/02/20 05:39:47;;;;;;;2.97;2.67;;;;;;;;;;5050853;28;20461;-66
2023/02/20 05:42:14;;;;;;;1.73;1.30;;;;;;;;;;5050974;28;20485;-67
2023/02/20 05:44:42;;;;;;;10.00;2.67;;;;;;;;;;5050779;28;20458;-66
2023/02/20 05:47:09;;;;;;;8.53;1.67;;;;;;;;;;5051417;28;20446;-66
2023/02/20 05:49:36;;;;;;;2.00;1.70;;;;;;;;;;5051268;28;20482;-67
2023/02/20 05:52:08;;;;;;;6.33;1.90;;;;;;;;;;5049678;28;20447;-66
2023/02/20 05:54:37;;;;;;;2.50;1.30;;;;;;;;;;5051081;28;20453;-66
2023/02/20 05:57:04;;;;;;;2.67;1.87;;;;;;;;;;5050104;28;20792;-66
2023/02/20 05:59:31;;;;;;;2.93;1.77;;;;;;;;;;5051089;28;20454;-67
2023/02/20 06:01:59;;;;;;;3.50;2.13;;;;;;;;;;5050173;28;20454;-67
2023/02/20 06:04:26;;;;;;;2.17;1.33;;;;;;;;;;5050387;28;20443;-66
2023/02/20 06:06:53;;;;;;;2.27;1.97;;;;;;;;;;5050333;28;20476;-67
2023/02/20 06:09:21;;;;;;;4.33;2.07;;;;;;;;;;5050458;28;20473;-66
2023/02/20 06:11:53;;;;;;;2.23;2.03;;;;;;;;;;5050487;28;20472;-66
2023/02/20 06:14:21;;;;;;;2.67;1.67;;;;;;;;;;5050988;28;20446;-67
2023/02/20 06:16:48;;;;;;;3.50;1.63;;;;;;;;;;5050299;28;20454;-66
2023/02/20 06:19:18;;;;;;;2.80;2.13;;;;;;;;;;5050406;28;20458;-66
2023/02/20 06:21:46;;;;;;;3.37;1.87;;;;;;;;;;5050136;28;20808;-66
2023/02/20 06:24:13;;;;;;;6.00;1.77;;;;;;;;;;5050335;28;20451;-66
2023/02/20 06:26:40;;;;;;;1.93;1.67;;;;;;;;;;5050948;28;20456;-66
2023/02/20 06:29:09;;;;;;;2.77;1.60;;;;;;;;;;5051036;28;20454;-67
2023/02/20 06:31:36;;;;;;;3.87;2.27;;;;;;;;;;5050307;28;20524;-67
2023/02/20 06:34:03;;;;;;;3.33;1.97;;;;;;;;;;5049525;28;20954;-69
2023/02/20 06:36:32;;;;;;;3.47;2.33;;;;;;;;;;5050508;28;20453;-66
2023/02/20 06:38:59;;;;;;;3.30;1.80;;;;;;;;;;5049747;28;20454;-66
2023/02/20 06:41:27;;;;;;;4.20;1.60;;;;;;;;;;5050168;28;20469;-66
2023/02/20 06:43:54;;;;;;;2.53;1.80;;;;;;;;;;5050249;28;20450;-66
2023/02/20 06:46:23;;;;;;;4.80;2.53;;;;;;;;;;5051009;28;20454;-66
2023/02/20 06:48:51;;;;;;;4.77;2.27;;;;;;;;;;5049790;28;20447;-67
2023/02/20 06:51:18;;;;;;;5.00;2.70;;;;;;;;;;5047023;28;20473;-67
2023/02/20 06:53:45;;;;;;;9.33;2.37;;;;;;;;;;5049641;28;21010;-69
2023/02/20 06:56:17;;;;;;;3.60;2.00;;;;;;;;;;5047934;28;20462;-67
2023/02/20 06:58:44;;;;;;;3.10;1.70;;;;;;;;;;5047568;28;20492;-68
2023/02/20 07:01:11;;;;;;;2.87;1.50;;;;;;;;;;5048271;28;20454;-67
2023/02/20 07:03:40;;;;;;;5.23;2.07;;;;;;;;;;5050573;28;20814;-68
2023/02/20 07:06:07;;;;;;;1.97;1.50;;;;;;;;;;5052574;28;20818;-68
2023/02/20 07:08:34;;;;;;;3.17;1.70;;;;;;;;;;5053293;28;20474;-68
2023/02/20 07:11:01;;;;;;;11.23;3.00;;;;;;;;;;5052020;28;20474;-68
2023/02/20 07:13:29;;;;;;;3.20;1.80;;;;;;;;;;5053580;28;20943;-68
2023/02/20 07:15:56;;;;;;;2.70;1.97;;;;;;;;;;5053718;28;20450;-68
2023/02/20 07:18:23;;;;;;;4.70;2.60;;;;;;;;;;5053334;28;20943;-67
2023/02/20 07:20:51;;;;;;;3.97;2.63;;;;;;;;;;5052895;28;20511;-68
2023/02/20 07:23:19;;;;;;;3.07;2.57;;;;;;;;;;5053382;28;20450;-68
2023/02/20 07:25:46;;;;;;;2.50;2.30;;;;;;;;;;5052539;28;20446;-67
2023/02/20 07:28:14;;;;;;;3.60;2.20;;;;;;;;;;5053196;28;20541;-67
2023/02/20 07:30:41;;;;;;;3.97;2.40;;;;;;;;;;5052412;28;20633;-68
2023/02/20 07:33:08;;;;;;;6.10;2.43;;;;;;;;;;5053751;28;20454;-68
2023/02/20 07:35:35;;;;;;;3.03;2.23;;;;;;;;;;5053508;28;20947;-68
2023/02/20 07:38:03;;;;;;;4.40;2.10;;;;;;;;;;5052535;28;20458;-68
2023/02/20 07:40:30;;;;;;;4.00;2.00;;;;;;;;;;5052481;28;20816;-67
2023/02/20 07:42:57;;;;;;;3.87;2.00;;;;;;;;;;5052921;28;20443;-67
2023/02/20 07:45:25;;;;;;;2.70;1.80;;;;;;;;;;5053394;28;20450;-69
2023/02/20 07:47:52;;;;;;;4.50;2.43;;;;;;;;;;5052680;28;20881;-68
2023/02/20 07:50:19;;;;;;;3.33;2.70;;;;;;;;;;5053260;28;20489;-68
2023/02/20 07:52:46;;;;;;;4.30;3.17;;;;;;;;;;5053340;28;20816;-69
2023/02/20 07:55:16;;;;;;;6.00;1.70;;;;;;;;;;5052247;28;20449;-69
2023/02/20 07:57:43;;;;;;;3.80;2.10;;;;;;;;;;5044509;28;20958;-70
2023/02/20 08:00:14;;;;;;;5.10;2.20;;;;;;;;;;5053557;28;20521;-70
2023/02/20 08:02:41;;;;;;;2.77;1.90;;;;;;;;;;5053047;28;20446;-66
2023/02/20 08:05:09;;;;;;;3.50;2.77;;;;;;;;;;5053363;28;20439;-70
2023/02/20 08:07:36;;;;;;;4.07;2.20;;;;;;;;;;5052450;28;20983;-69
2023/02/20 08:10:03;;;;;;;3.00;1.93;;;;;;;;;;5051488;28;20481;-69
2023/02/20 08:12:32;;;;;;;4.40;2.00;;;;;;;;;;5052854;28;20453;-70
2023/02/20 08:14:59;;;;;;;3.30;2.10;;;;;;;;;;5050277;28;20951;-69
2023/02/20 08:17:26;;;;;;;4.50;2.23;;;;;;;;;;5052276;28;20442;-69
2023/02/20 08:19:53;;;;;;;2.90;2.03;;;;;;;;;;5052379;28;20450;-70
2023/02/20 08:22:20;;;;;;;2.67;1.60;;;;;;;;;;5051535;28;20451;-70
2023/02/20 08:24:47;;;;;;;3.23;1.77;;;;;;;;;;5051750;28;20823;-70
2023/02/20 08:27:14;;;;;;;2.27;1.83;;;;;;;;;;5052101;28;20450;-69
2023/02/20 08:29:43;;;;;;;8.10;2.67;;;;;;;;;;5051207;28;21018;-66
2023/02/20 08:32:10;;;;;;;4.03;2.47;;;;;;;;;;5050732;28;20482;-69
2023/02/20 08:34:37;;;;;;;1.50;1.40;;;;;;;;;;5052749;28;20544;-70
2023/02/20 08:37:04;;;;;;;2.13;1.33;;;;;;;;;;5051808;28;20458;-70
2023/02/20 08:39:31;;;;;;;2.47;2.03;;;;;;;;;;5051560;28;20457;-69
2023/02/20 08:41:58;;;;;;;1.60;1.37;;;;;;;;;;5050362;28;20457;-69
2023/02/20 08:44:26;;;;;;;3.43;1.93;;;;;;;;;;5052172;28;20458;-69
2023/02/20 08:46:54;;;;;;;2.57;1.50;;;;;;;;;;5051656;28;20462;-69
2023/02/20 08:49:21;;;;;;;1.80;1.37;;;;;;;;;;5050994;28;20450;-70
2023/02/20 08:51:49;;;;;;;2.30;1.43;;;;;;;;;;5050580;28;20478;-70
2023/02/20 08:54:16;;;;;;;2.43;1.50;;;;;;;;;;5049984;28;20462;-69
2023/02/20 08:56:43;;;;;;;1.40;1.20;;;;;;;;;;5047759;28;20450;-70
2023/02/20 08:59:11;;;;;;;2.40;1.77;;;;;;;;;;5052472;28;21052;-70
2023/02/20 09:01:41;;;;;;;5.40;1.43;;;;;;;;;;5051899;28;20453;-71
2023/02/20 09:04:09;;;;;;;2.10;1.37;;;;;;;;;;5052425;28;20442;-69
2023/02/20 09:06:37;;;;;;;1.20;1.10;;;;;;;;;;5050755;28;20508;-69
2023/02/20 09:09:04;;;;;;;4.00;1.43;;;;;;;;;;5050749;28;20480;-70
2023/02/20 09:11:31;;;;;;;5.20;1.80;;;;;;;;;;5051774;28;21175;-70
2023/02/20 09:13:58;;;;;;;1.97;1.03;;;;;;;;;;5051131;28;20458;-70
2023/02/20 09:16:27;;;;;;;1.37;1.00;;;;;;;;;;5050632;28;20445;-70
2023/02/20 09:18:54;;;;;;;1.73;1.60;;;;;;;;;;5050217;28;20450;-70
2023/02/20 09:21:23;;;;;;;3.90;2.20;;;;;;;;;;5051089;28;20826;-69
2023/02/20 09:23:50;;;;;;;2.43;1.40;;;;;;;;;;5050293;28;20448;-70
2023/02/20 09:26:17;;;;;;;3.97;2.07;;;;;;;;;;5050689;28;20450;-71
2023/02/20 09:28:44;;;;;;;1.70;1.33;;;;;;;;;;5050122;28;20808;-70
2023/02/20 09:31:12;;;;;;;1.30;1.20;;;;;;;;;;5051151;28;20510;-69
2023/02/20 09:33:39;;;;;;;3.30;1.43;;;;;;;;;;5048023;28;20533;-70
2023/02/20 09:36:06;;;;;;;2.90;1.30;;;;;;;;;;5051132;28;20542;-71
2023/02/20 09:38:35;;;;;;;1.87;1.50;;;;;;;;;;5051373;28;20473;-68
2023/02/20 09:41:02;;;;;;;1.93;1.20;;;;;;;;;;5050205;28;20457;-69
2023/02/20 09:43:34;;;;;;;2.00;1.17;;;;;;;;;;5050730;28;20931;-69
2023/02/20 09:46:13;;;;;;;1.80;1.23;;;;;;;;;;5050646;28;20801;-68
2023/02/20 09:48:46;;;;;;;3.10;1.50;;;;;;;;;;5050377;28;20451;-68
2023/02/20 09:51:14;;;;;;;1.60;0.97;;;;;;;;;;5050273;28;20474;-67
2023/02/20 09:53:50;;;;;;;1.00;0.83;;;;;;;;;;5050395;28;20462;-66
2023/02/20 09:56:19;;;;;;;1.50;1.40;;;;;;;;;;5051144;28;20738;-68
2023/02/20 09:58:49;;;;;;;3.73;1.40;;;;;;;;;;5049687;28;20458;-68
2023/02/20 10:01:18;;;;;;;1.60;1.13;;;;;;;;;;5045435;28;20803;-67
2023/02/20 10:03:52;;;;;;;2.30;1.30;;;;;;;;;;5050020;28;20478;-67
2023/02/20 10:06:20;;;;;;;3.87;1.17;;;;;;;;;;5049944;28;20458;-68
2023/02/20 10:08:50;;;;;;;3.83;1.47;;;;;;;;;;5049860;28;20474;-68
2023/02/20 10:11:21;;;;;;;1.90;1.50;;;;;;;;;;5049485;28;20544;-67
2023/02/20 10:13:53;;;;;;;2.23;1.70;;;;;;;;;;5050333;28;20446;-67
2023/02/20 10:16:33;;;;;;;1.87;0.70;;;;;;;;;;5050893;28;20813;-68
2023/02/20 10:19:04;;;;;;;1.40;1.07;;;;;;;;;;5049947;28;20443;-68
2023/02/20 10:21:37;;;;;;;1.30;0.97;;;;;;;;;;5050059;28;20447;-69
2023/02/20 10:24:14;;;;;;;1.67;1.07;;;;;;;;;;5049343;28;20458;-68
2023/02/20 10:26:45;;;;;;;1.80;1.27;;;;;;;;;;5050598;28;20455;-65
2023/02/20 10:29:15;;;;;;;4.60;0.90;;;;;;;;;;5049035;28;20442;-70
2023/02/20 10:31:46;;;;;;;1.97;1.10;;;;;;;;;;5049777;28;20470;-67
2023/02/20 10:34:15;;;;;;;3.70;1.30;;;;;;;;;;5050076;28;20464;-67
2023/02/20 10:36:45;;;;;;;3.53;1.53;;;;;;;;;;5049644;28;20825;-68
2023/02/20 10:39:14;;;;;;;2.33;1.53;;;;;;;;;;5049767;28;20454;-68
2023/02/20 10:41:44;;;;;;;2.40;1.13;;;;;;;;;;5050004;28;20454;-65
2023/02/20 10:44:16;;;;;;;5.33;1.03;;;;;;;;;;5050601;28;20454;-68
2023/02/20 10:46:47;;;;;;;1.10;1.00;;;;;;;;;;5049701;28;21003;-68
2023/02/20 10:49:16;;;;;;;1.20;0.83;;;;;;;;;;5050669;28;20459;-68
2023/02/20 10:51:46;;;;;;;5.70;1.23;;;;;;;;;;5049571;28;20497;-68
2023/02/20 10:54:18;;;;;;;1.70;1.23;;;;;;;;;;5048977;28;20453;-68
2023/02/20 10:56:47;;;;;;;1.27;1.10;;;;;;;;;;5046948;28;20465;-68
2023/02/20 10:59:19;;;;;;;2.37;1.40;;;;;;;;;;5050589;28;20450;-67
2023/02/20 11:01:48;;;;;;;4.50;1.57;;;;;;;;;;5049628;28;20508;-67
2023/02/20 11:04:18;;;;;;;1.30;0.90;;;;;;;;;;5050643;28;20450;-68
2023/02/20 11:06:46;;;;;;;1.87;1.10;;;;;;;;;;5049456;28;20458;-70
2023/02/20 11:09:16;;;;;;;3.20;1.40;;;;;;;;;;5050259;28;20480;-67
2023/02/20 11:11:44;;;;;;;2.23;0.73;;;;;;;;;;5049470;28;20490;-67
2023/02/20 11:14:12;;;;;;;2.20;1.10;;;;;;;;;;5050424;28;20454;-69
2023/02/20 11:16:42;;;;;;;1.07;0.90;;;;;;;;;;5037841;28;20450;-69
2023/02/20 11:19:13;;;;;;;1.20;1.00;;;;;;;;;;5049797;28;20454;-68
2023/02/20 11:21:41;;;;;;;1.63;1.00;;;;;;;;;;5046178;28;20462;-68
2023/02/20 11:24:28;;;;;;;1.37;0.93;;;;;;;;;;5047819;28;20450;-67
2023/02/20 11:27:10;;;;;;;0.80;0.77;;;;;;;;;;5044441;28;20457;-67
2023/02/20 11:29:42;;;;;;;2.87;1.13;;;;;;;;;;5046914;28;20517;-67
2023/02/20 11:32:18;;;;;;;0.90;0.60;;;;;;;;;;5047378;28;20835;-67
2023/02/20 11:34:45;;;;;;;1.47;1.07;;;;;;;;;;5046550;28;20456;-67
2023/02/20 11:37:13;;;;;;;2.67;1.50;;;;;;;;;;5047241;28;20462;-68
2023/02/20 11:39:46;;;;;;;3.90;1.33;;;;;;;;;;5045848;28;20454;-68
2023/02/20 11:42:16;;;;;;;2.30;1.40;;;;;;;;;;5047237;28;20450;-68
2023/02/20 11:44:43;;;;;;;1.77;1.23;;;;;;;;;;5046911;28;20455;-67
2023/02/20 11:47:12;;;;;;;2.80;1.33;;;;;;;;;;5047236;28;20454;-70
2023/02/20 11:49:39;;;;;;;0.90;0.83;;;;;;;;;;5047590;28;20458;-67
2023/02/20 11:52:10;;;;;;;1.67;1.17;;;;;;;;;;5048911;28;20974;-67
2023/02/20 11:54:37;;;;;;;1.50;1.07;;;;;;;;;;5046300;28;20453;-67
2023/02/20 11:57:10;;;;;;;2.90;1.10;;;;;;;;;;5048099;28;20812;-68
2023/02/20 11:59:38;;;;;;;1.87;1.33;;;;;;;;;;5050800;28;20438;-68
2023/02/20 12:02:26;;;;;;;1.83;0.90;;;;;;;;;;5049106;28;20947;-69
2023/02/20 12:05:05;;;;;;;1.20;0.83;;;;;;;;;;5048575;28;20454;-68
2023/02/20 12:07:35;;;;;;;6.00;1.17;;;;;;;;;;5051083;28;20466;-68
2023/02/20 12:10:04;;;;;;;7.70;1.30;;;;;;;;;;5049500;28;20493;-68
2023/02/20 12:12:33;;;;;;;1.63;1.03;;;;;;;;;;5050595;28;20544;-67
2023/02/20 12:15:01;;;;;;;1.53;0.90;;;;;;;;;;5037651;28;20457;-70
2023/02/20 12:17:32;;;;;;;1.67;1.23;;;;;;;;;;5050378;28;20822;-68
2023/02/20 12:20:04;;;;;;;2.07;0.87;;;;;;;;;;5056227;28;20439;-67
2023/02/20 12:22:34;;;;;;;0.90;0.80;;;;;;;;;;5050463;28;20849;-68
2023/02/20 12:25:22;;;;;;;2.30;0.80;;;;;;;;;;5049710;28;20458;-68
2023/02/20 12:28:10;;;;;;;1.47;0.93;;;;;;;;;;5046390;28;20560;-68
2023/02/20 12:30:48;;;;;;;1.30;0.83;;;;;;;;;;5045529;28;20784;-67
2023/02/20 12:33:22;;;;;;;1.80;1.00;;;;;;;;;;5050167;28;20843;-68
2023/02/20 12:35:54;;;;;;;1.70;1.00;;;;;;;;;;5048802;28;20438;-68
2023/02/20 12:38:28;;;;;;;2.60;0.80;;;;;;;;;;5049218;28;20553;-68
2023/02/20 12:41:08;;;;;;;1.40;1.20;;;;;;;;;;5046961;28;20743;-68
2023/02/20 12:43:40;;;;;;;4.13;1.20;;;;;;;;;;5049754;28;20458;-68
2023/02/20 12:46:10;;;;;;;1.33;1.20;;;;;;;;;;5039464;28;20471;-68
2023/02/20 12:48:43;;;;;;;2.07;1.00;;;;;;;;;;5049403;28;20478;-68
2023/02/20 12:51:15;;;;;;;1.00;0.70;;;;;;;;;;5049124;28;20445;-67
2023/02/20 12:53:54;;;;;;;1.40;0.73;;;;;;;;;;5048819;28;20458;-67
2023/02/20 12:56:25;;;;;;;2.03;0.70;;;;;;;;;;5048100;28;20955;-68
2023/02/20 12:58:56;;;;;;;1.00;0.77;;;;;;;;;;5049125;28;20442;-67
2023/02/20 13:01:25;;;;;;;0.97;0.87;;;;;;;;;;5048262;28;20441;-68
2023/02/20 13:03:57;;;;;;;1.83;0.80;;;;;;;;;;5048895;28;20454;-68
2023/02/20 13:06:27;;;;;;;0.60;0.60;;;;;;;;;;5049568;28;20469;-68
2023/02/20 13:09:02;;;;;;;1.07;0.80;;;;;;;;;;5048199;28;20485;-67
2023/02/20 13:11:33;;;;;;;2.80;0.80;;;;;;;;;;5048677;28;20438;-68
2023/02/20 13:14:06;;;;;;;1.13;0.80;;;;;;;;;;5048941;28;20447;-68
2023/02/20 13:16:38;;;;;;;0.70;0.60;;;;;;;;;;5049052;28;20435;-67
2023/02/20 13:19:08;;;;;;;1.20;0.90;;;;;;;;;;5049061;28;20454;-67
2023/02/20 13:21:35;;;;;;;1.53;0.70;;;;;;;;;;5048869;28;20458;-68
2023/02/20 13:24:24;;;;;;;0.70;0.60;;;;;;;;;;5044359;28;20457;-70
2023/02/20 13:26:52;;;;;;;1.00;0.60;;;;;;;;;;5047542;28;20530;-68
2023/02/20 13:29:19;;;;;;;0.97;0.60;;;;;;;;;;5048893;28;20476;-68
2023/02/20 13:31:49;;;;;;;1.47;0.70;;;;;;;;;;5047909;28;20489;-68
2023/02/20 13:34:34;;;;;;;1.00;0.80;;;;;;;;;;5048755;28;20458;-68
2023/02/20 13:37:01;;;;;;;2.17;0.67;;;;;;;;;;5047505;28;20941;-68
2023/02/20 13:39:43;;;;;;;0.87;0.73;;;;;;;;;;5047168;28;20446;-68
2023/02/20 13:42:26;;;;;;;1.63;0.90;;;;;;;;;;5048529;28;20914;-69
2023/02/20 13:44:54;;;;;;;1.43;0.80;;;;;;;;;;5040556;28;21010;-70
2023/02/20 13:47:35;;;;;;;7.27;0.60;;;;;;;;;;5048912;28;20884;-69
2023/02/20 13:50:03;;;;;;;0.90;0.60;;;;;;;;;;5048140;28;20764;-69
2023/02/20 13:52:37;;;;;;;0.70;0.60;;;;;;;;;;5047969;28;20589;-71
2023/02/20 13:55:12;;;;;;;0.70;0.60;;;;;;;;;;5045111;28;20955;-69
2023/02/20 13:57:44;;;;;;;1.43;0.67;;;;;;;;;;5047934;28;20454;-69
2023/02/20 14:00:20;;;;;;;0.60;0.40;;;;;;;;;;5048427;28;20446;-69
2023/02/20 14:02:49;;;;;;;3.63;1.90;;;;;;;;;;5047788;28;20442;-69
2023/02/20 14:05:19;;;;;;;0.80;0.50;;;;;;;;;;5055283;28;20467;-69
2023/02/20 14:07:46;;;;;;;1.93;0.47;;;;;;;;;;5049984;28;20466;-68
2023/02/20 14:10:18;;;;;;;1.53;0.50;;;;;;;;;;5047518;28;20474;-67
2023/02/20 14:12:46;;;;;;;0.60;0.50;;;;;;;;;;5047489;28;20490;-69
2023/02/20 14:15:13;;;;;;;0.60;0.50;;;;;;;;;;5048034;28;20450;-69
2023/02/20 14:17:42;;;;;;;0.63;0.57;;;;;;;;;;5047708;28;20457;-70
2023/02/20 14:20:18;;;;;;;0.87;0.50;;;;;;;;;;5048126;28;20450;-69
2023/02/20 14:22:46;;;;;;;1.90;0.53;;;;;;;;;;5047877;28;20462;-70
2023/02/20 14:25:24;;;;;;;3.90;0.60;;;;;;;;;;5047913;28;20438;-69
2023/02/20 14:27:51;;;;;;;0.60;0.50;;;;;;;;;;5047808;28;20454;-68
2023/02/20 14:30:19;;;;;;;0.70;0.47;;;;;;;;;;5047397;28;20450;-68
2023/02/20 14:32:47;;;;;;;1.07;0.43;;;;;;;;;;5046616;28;20486;-70
2023/02/20 14:35:30;;;;;;;1.07;0.70;;;;;;;;;;5047450;28;20454;-69
2023/02/20 14:38:00;;;;;;;0.60;0.40;;;;;;;;;;5047437;28;20454;-70
2023/02/20 14:40:32;;;;;;;1.37;0.60;;;;;;;;;;5045216;28;20474;-69
2023/02/20 14:43:01;;;;;;;1.17;0.50;;;;;;;;;;5049121;28;20442;-68
2023/02/20 14:45:28;;;;;;;0.60;0.40;;;;;;;;;;5049028;28;20454;-69
2023/02/20 14:47:57;;;;;;;0.70;0.50;;;;;;;;;;5049000;28;20454;-69
2023/02/20 14:50:26;;;;;;;0.70;0.50;;;;;;;;;;5049434;28;20446;-69
2023/02/20 14:53:04;;;;;;;1.10;0.80;;;;;;;;;;5049378;28;20484;-68
2023/02/20 14:55:31;;;;;;;0.60;0.50;;;;;;;;;;5045389;28;20888;-69
2023/02/20 14:57:58;;;;;;;0.80;0.77;;;;;;;;;;5048049;28;20791;-69
2023/02/20 15:00:33;;;;;;;0.70;0.50;;;;;;;;;;5049451;28;20454;-70
2023/02/20 15:03:00;;;;;;;1.63;0.53;;;;;;;;;;5048744;28;20442;-70
2023/02/20 15:05:30;;;;;;;0.73;0.50;;;;;;;;;;5049937;28;20451;-70
2023/02/20 15:08:02;;;;;;;0.80;0.50;;;;;;;;;;5049483;28;20458;-70
2023/02/20 15:10:33;;;;;;;0.60;0.50;;;;;;;;;;5049776;28;20438;-70
2023/02/20 15:13:04;;;;;;;0.67;0.50;;;;;;;;;;5049898;28;20470;-70
2023/02/20 15:15:34;;;;;;;0.80;0.60;;;;;;;;;;5050097;28;20438;-70